Time;durP1;ratioP1;P1;durP2;ratioP2;P2;SDS_P1;SDS_P2;PMS_P1;PMS_P2;Temp;Humidity;BMP_temperature;BMP_pressure;BME280_temperature;BME280_humidity;BME280_pressure;Samples;Min_cycle;Max_cycle;Signal;HPM_P1;HPM_P2
2022/08/17 00:01:55;;;;;;;0.00;0.00;;;;;;;19.36;93.92;100920.75;4981987;28;20473;-71
2022/08/17 00:04:21;;;;;;;0.00;0.00;;;;;;;19.38;93.56;100921.44;4982143;28;20038;-71
2022/08/17 00:06:47;;;;;;;0.00;0.00;;;;;;;19.44;94.48;100904.41;4984598;28;20401;-71
2022/08/17 00:09:12;;;;;;;0.00;0.00;;;;;;;19.44;93.85;100900.81;4983438;28;20034;-71
2022/08/17 00:11:40;;;;;;;0.00;0.00;;;;;;;19.49;93.47;100901.97;4983343;28;20068;-71
2022/08/17 00:14:18;;;;;;;0.00;0.00;;;;;;;19.49;93.14;100898.41;4983474;28;20029;-71
2022/08/17 00:16:49;;;;;;;0.00;0.00;;;;;;;19.38;93.88;100891.50;4986600;28;20065;-71
2022/08/17 00:19:17;;;;;;;0.00;0.00;;;;;;;19.34;93.62;100895.59;4982538;28;20026;-71
2022/08/17 00:21:45;;;;;;;0.00;0.00;;;;;;;19.29;93.71;100897.97;4981181;28;20026;-71
2022/08/17 00:24:11;;;;;;;0.00;0.00;;;;;;;19.26;93.71;100898.34;4977452;28;20068;-71
2022/08/17 00:26:36;;;;;;;0.00;0.00;;;;;;;19.14;94.50;100906.03;4985008;28;20122;-71
2022/08/17 00:29:03;;;;;;;0.00;0.00;;;;;;;19.05;95.08;100891.59;4982918;28;20026;-71
2022/08/17 00:31:28;;;;;;;0.00;0.00;;;;;;;19.08;95.65;100891.25;4980499;28;20023;-71
2022/08/17 00:33:53;;;;;;;0.00;0.00;;;;;;;19.12;95.21;100889.88;4979382;28;20045;-71
2022/08/17 00:36:19;;;;;;;0.00;0.00;;;;;;;19.00;94.62;100870.38;4985092;28;20447;-71
2022/08/17 00:38:44;;;;;;;0.00;0.00;;;;;;;19.18;94.26;100894.63;4983779;28;22359;-71
2022/08/17 00:41:19;;;;;;;0.00;0.00;;;;;;;19.21;94.30;100884.41;4981980;28;20384;-71
2022/08/17 00:43:48;;;;;;;0.00;0.00;;;;;;;19.24;94.29;100879.47;4978372;28;20026;-71
2022/08/17 00:46:18;;;;;;;0.00;0.00;;;;;;;19.20;93.86;100882.72;4987559;28;20343;-70
2022/08/17 00:48:44;;;;;;;0.00;0.00;;;;;;;19.13;93.86;100880.69;4988551;28;20505;-71
2022/08/17 00:51:21;;;;;;;0.00;0.00;;;;;;;19.08;93.85;100876.78;4981876;28;20030;-71
2022/08/17 00:53:51;;;;;;;0.00;0.00;;;;;;;19.03;93.82;100867.31;4981805;28;20034;-71
2022/08/17 00:56:23;;;;;;;0.00;0.00;;;;;;;18.98;94.57;100868.81;4978961;28;20029;-71
2022/08/17 00:58:50;;;;;;;0.00;0.00;;;;;;;18.94;94.91;100870.16;4981736;28;20034;-71
2022/08/17 01:01:16;;;;;;;0.00;0.00;;;;;;;18.85;95.41;100866.63;4981286;28;20069;-71
2022/08/17 01:03:42;;;;;;;0.00;0.00;;;;;;;18.77;96.87;100862.03;4984013;28;20105;-71
2022/08/17 01:06:08;;;;;;;0.00;0.00;;;;;;;18.63;96.83;100841.84;4982078;28;20039;-71
2022/08/17 01:08:35;;;;;;;0.00;0.00;;;;;;;18.76;96.90;100859.50;4981303;28;20050;-71
2022/08/17 01:11:01;;;;;;;0.00;0.00;;;;;;;18.72;97.31;100878.03;4977732;28;20453;-71
2022/08/17 01:13:29;;;;;;;0.00;0.00;;;;;;;18.70;98.06;100869.19;4977201;28;20030;-71
2022/08/17 01:16:02;;;;;;;0.00;0.00;;;;;;;18.77;97.26;100875.66;4980842;28;20077;-71
2022/08/17 01:18:28;;;;;;;0.00;0.00;;;;;;;18.82;97.00;100864.25;4983235;28;20076;-71
2022/08/17 01:20:56;;;;;;;0.00;0.00;;;;;;;18.83;96.75;100855.06;4981112;28;20026;-70
2022/08/17 01:23:23;;;;;;;0.00;0.00;;;;;;;18.84;96.77;100862.19;4981250;28;20034;-71
2022/08/17 01:25:50;;;;;;;0.00;0.00;;;;;;;18.83;96.04;100864.09;4981906;28;20065;-71
2022/08/17 01:28:16;;;;;;;0.00;0.00;;;;;;;18.71;96.20;100852.72;4984304;28;20410;-70
2022/08/17 01:30:41;;;;;;;0.00;0.00;;;;;;;18.78;96.40;100855.59;4978211;28;20132;-71
2022/08/17 01:33:10;;;;;;;0.00;0.00;;;;;;;18.83;95.88;100855.06;4981725;28;20301;-71
2022/08/17 01:35:36;;;;;;;0.00;0.00;;;;;;;18.85;95.92;100848.44;4980117;28;20026;-71
2022/08/17 01:38:01;;;;;;;0.00;0.00;;;;;;;18.86;95.72;100841.97;4982666;28;20030;-71
2022/08/17 01:40:37;;;;;;;0.00;0.00;;;;;;;18.86;96.07;100839.25;4982809;28;20839;-71
2022/08/17 01:43:10;;;;;;;0.00;0.00;;;;;;;18.78;96.06;100836.56;4985261;28;20026;-71
2022/08/17 01:45:41;;;;;;;0.00;0.00;;;;;;;18.77;96.12;100837.56;4984097;28;20054;-71
2022/08/17 01:48:06;;;;;;;0.00;0.00;;;;;;;18.67;96.60;100837.75;4982379;28;20042;-71
2022/08/17 01:50:39;;;;;;;0.00;0.00;;;;;;;18.66;96.15;100833.34;4983380;28;20034;-71
2022/08/17 01:53:08;;;;;;;0.00;0.00;;;;;;;18.60;96.21;100834.03;4982781;28;20041;-71
2022/08/17 01:55:45;;;;;;;0.00;0.00;;;;;;;18.46;95.75;100816.56;4983328;28;20038;-71
2022/08/17 01:58:10;;;;;;;0.00;0.00;;;;;;;18.59;96.15;100827.75;4984549;28;20049;-71
2022/08/17 02:00:37;;;;;;;0.00;0.00;;;;;;;18.60;95.38;100834.03;4981087;28;20489;-71
2022/08/17 02:03:03;;;;;;;0.00;0.00;;;;;;;18.41;95.53;100806.22;4982720;28;20072;-71
2022/08/17 02:05:28;;;;;;;0.00;0.00;;;;;;;18.44;95.67;100815.88;4983887;28;20034;-72
2022/08/17 02:07:54;;;;;;;0.00;0.00;;;;;;;18.50;95.89;100833.38;4982906;28;20061;-71
2022/08/17 02:10:19;;;;;;;0.00;0.00;;;;;;;18.55;96.00;100840.00;4981173;28;20053;-71
2022/08/17 02:12:44;;;;;;;0.00;0.00;;;;;;;18.60;95.93;100842.19;4982501;28;20030;-71
2022/08/17 02:15:12;;;;;;;0.00;0.00;;;;;;;18.62;96.31;100844.75;4983429;28;20096;-71
2022/08/17 02:17:39;;;;;;;0.00;0.00;;;;;;;18.56;95.75;100841.69;4979349;28;20030;-71
2022/08/17 02:20:06;;;;;;;0.00;0.00;;;;;;;18.61;96.06;100843.06;4981806;28;20121;-70
2022/08/17 02:22:31;;;;;;;0.00;0.00;;;;;;;18.64;96.38;100840.00;4983039;28;20034;-71
2022/08/17 02:24:57;;;;;;;0.00;0.00;;;;;;;18.72;96.53;100839.97;4967431;28;20049;-71
2022/08/17 02:27:22;;;;;;;0.00;0.00;;;;;;;18.72;96.40;100835.38;4979483;28;20030;-71
2022/08/17 02:29:48;;;;;;;0.00;0.00;;;;;;;18.77;96.01;100840.28;4982818;28;20041;-71
2022/08/17 02:32:20;;;;;;;0.00;0.00;;;;;;;18.84;95.77;100841.31;4981211;28;20037;-71
2022/08/17 02:34:46;;;;;;;0.00;0.00;;;;;;;18.89;95.88;100844.34;4988786;28;20073;-71
2022/08/17 02:37:11;;;;;;;0.00;0.00;;;;;;;18.86;95.90;100827.50;4984136;28;20448;-71
2022/08/17 02:39:37;;;;;;;0.00;0.00;;;;;;;18.80;95.19;100826.34;4985096;28;20030;-71
2022/08/17 02:42:03;;;;;;;0.00;0.00;;;;;;;18.89;95.54;100835.31;4984257;28;20141;-71
2022/08/17 02:44:29;;;;;;;0.00;0.00;;;;;;;18.90;95.47;100823.44;4984053;28;20034;-71
2022/08/17 02:46:54;;;;;;;0.00;0.00;;;;;;;18.93;95.35;100830.41;4983784;28;20038;-71
2022/08/17 02:49:19;;;;;;;0.00;0.00;;;;;;;18.88;95.22;100820.91;4988572;28;20061;-71
2022/08/17 02:51:45;;;;;;;0.00;0.00;;;;;;;18.96;95.07;100828.22;4985054;28;20467;-71
2022/08/17 02:54:10;;;;;;;0.00;0.00;;;;;;;18.98;94.91;100825.28;4986735;28;20427;-71
2022/08/17 02:56:35;;;;;;;0.00;0.00;;;;;;;18.96;95.07;100814.59;4983200;28;20458;-71
2022/08/17 02:59:01;;;;;;;0.00;0.00;;;;;;;18.98;94.22;100817.13;4983604;28;20084;-71
2022/08/17 03:01:26;;;;;;;0.00;0.00;;;;;;;18.88;94.34;100820.91;4981837;28;20062;-71
2022/08/17 03:03:52;;;;;;;0.00;0.00;;;;;;;18.84;94.11;100821.41;4985108;28;20577;-71
2022/08/17 03:06:17;;;;;;;0.00;0.00;;;;;;;18.71;94.06;100809.22;4985175;28;20496;-71
2022/08/17 03:08:43;;;;;;;0.00;0.00;;;;;;;18.76;94.21;100822.28;4988247;28;20026;-71
2022/08/17 03:11:09;;;;;;;0.00;0.00;;;;;;;18.72;94.64;100816.34;4984054;28;20105;-71
2022/08/17 03:13:34;;;;;;;0.00;0.00;;;;;;;18.66;94.00;100811.59;4978843;28;20510;-71
2022/08/17 03:15:59;;;;;;;0.00;0.00;;;;;;;18.58;94.32;100808.88;4985738;28;20040;-71
2022/08/17 03:18:26;;;;;;;0.00;0.00;;;;;;;18.53;95.49;100806.69;4983604;28;20092;-71
2022/08/17 03:20:58;;;;;;;0.00;0.00;;;;;;;18.56;95.45;100819.09;4977659;28;20113;-71
2022/08/17 03:23:24;;;;;;;0.00;0.00;;;;;;;18.56;95.35;100816.38;4978471;28;20138;-71
2022/08/17 03:25:49;;;;;;;0.00;0.00;;;;;;;18.48;95.79;100811.78;4985895;28;20065;-71
2022/08/17 03:28:15;;;;;;;0.00;0.00;;;;;;;18.53;96.14;100816.75;4981935;28;20366;-71
2022/08/17 03:30:41;;;;;;;0.00;0.00;;;;;;;18.53;96.21;100816.75;4983463;28;20030;-71
2022/08/17 03:33:08;;;;;;;0.00;0.00;;;;;;;18.54;96.58;100818.44;4982902;28;20031;-71
2022/08/17 03:35:36;;;;;;;0.00;0.00;;;;;;;18.55;97.17;100820.09;4986367;28;20062;-71
2022/08/17 03:38:02;;;;;;;0.00;0.00;;;;;;;18.57;96.79;100821.66;4982223;28;20498;-71
2022/08/17 03:40:29;;;;;;;0.03;0.03;;;;;;;18.66;95.94;100819.75;4983009;28;20045;-71
2022/08/17 03:42:56;;;;;;;0.00;0.00;;;;;;;18.69;96.45;100818.53;4980273;28;20030;-71
2022/08/17 03:56:43;;;;;;;0.00;0.00;;;;;;;18.63;97.39;100813.81;4984744;28;20097;-71
2022/08/17 03:59:10;;;;;;;0.00;0.00;;;;;;;18.69;97.63;100821.25;4980131;28;20036;-72
2022/08/17 04:01:36;;;;;;;0.00;0.00;;;;;;;18.66;97.98;100814.31;4977381;28;20065;-70
2022/08/17 04:04:01;;;;;;;0.00;0.00;;;;;;;18.70;97.78;100818.38;4983821;28;20165;-71
2022/08/17 04:06:27;;;;;;;0.00;0.00;;;;;;;18.65;98.02;100820.78;4978427;28;20113;-71
2022/08/17 04:08:52;;;;;;;0.00;0.00;;;;;;;18.62;98.50;100823.00;4985191;28;20026;-71
2022/08/17 04:11:18;;;;;;;0.00;0.00;;;;;;;18.57;98.41;100818.94;4980507;28;20030;-71
2022/08/17 04:13:43;;;;;;;0.00;0.00;;;;;;;18.70;98.19;100826.53;4984183;28;20056;-71
2022/08/17 04:16:08;;;;;;;0.00;0.00;;;;;;;18.67;98.42;100815.19;4986509;28;20026;-71
2022/08/17 04:18:34;;;;;;;0.00;0.00;;;;;;;18.73;98.61;100833.50;4987300;28;20031;-71
2022/08/17 04:20:59;;;;;;;0.00;0.00;;;;;;;18.69;98.52;100826.69;4979164;28;20038;-71
2022/08/17 04:23:27;;;;;;;0.00;0.00;;;;;;;18.74;98.33;100830.63;4976661;28;20027;-71
2022/08/17 04:25:52;;;;;;;0.00;0.00;;;;;;;18.77;98.63;100836.75;4978988;28;20069;-71
2022/08/17 04:28:18;;;;;;;0.00;0.00;;;;;;;18.77;98.41;100834.84;4986138;28;20125;-71
2022/08/17 04:30:46;;;;;;;0.00;0.00;;;;;;;18.78;98.46;100833.84;4978640;28;20430;-71
2022/08/17 04:33:17;;;;;;;0.03;0.00;;;;;;;18.81;99.45;100838.06;4983298;28;20026;-71
2022/08/17 04:35:47;;;;;;;0.00;0.00;;;;;;;18.81;99.78;100840.78;4981405;28;20158;-71
2022/08/17 04:38:19;;;;;;;0.00;0.00;;;;;;;18.87;99.02;100835.50;4980722;28;20034;-71
2022/08/17 04:43:29;;;;;;;0.00;0.00;;;;;;;18.93;99.05;100831.25;4981443;28;20108;-71
2022/08/17 04:46:07;;;;;;;0.00;0.00;;;;;;;18.98;98.53;100833.47;4981171;28;20029;-71
2022/08/17 04:48:38;;;;;;;0.00;0.00;;;;;;;19.06;98.05;100832.59;4983525;28;20022;-71
2022/08/17 04:51:08;;;;;;;0.00;0.00;;;;;;;19.11;97.70;100833.75;4978323;28;20034;-71
2022/08/17 04:53:33;;;;;;;0.00;0.00;;;;;;;19.21;97.32;100841.72;4975219;28;20026;-71
2022/08/17 04:55:59;;;;;;;0.00;0.00;;;;;;;19.12;97.25;100824.56;4977806;28;20394;-71
2022/08/17 04:58:24;;;;;;;0.00;0.00;;;;;;;19.29;97.36;100868.91;4980653;28;20481;-71
2022/08/17 05:00:50;;;;;;;0.00;0.00;;;;;;;19.22;97.40;100851.56;4981178;28;20113;-71
2022/08/17 05:03:15;;;;;;;0.00;0.00;;;;;;;19.27;98.31;100867.38;4973975;28;20078;-71
2022/08/17 05:05:42;;;;;;;0.00;0.00;;;;;;;19.29;99.06;100868.03;4977190;28;20110;-71
2022/08/17 05:08:08;;;;;;;0.00;0.00;;;;;;;19.30;98.72;100861.56;4980032;28;20030;-71
2022/08/17 05:10:35;;;;;;;0.00;0.00;;;;;;;19.26;98.94;100866.53;4979722;28;20022;-71
2022/08/17 05:13:07;;;;;;;0.00;0.00;;;;;;;19.24;98.87;100868.59;4979042;28;20033;-71
2022/08/17 05:15:35;;;;;;;0.00;0.00;;;;;;;19.31;98.55;100872.31;4980186;28;20069;-71
2022/08/17 05:18:00;;;;;;;0.00;0.00;;;;;;;19.33;98.09;100877.56;4980458;28;20058;-71
2022/08/17 05:20:26;;;;;;;0.00;0.00;;;;;;;19.44;97.90;100906.25;4982454;28;20058;-70
2022/08/17 05:22:54;;;;;;;0.00;0.00;;;;;;;19.53;96.92;100916.09;4977848;28;20109;-70
2022/08/17 05:25:26;;;;;;;0.00;0.00;;;;;;;19.54;96.64;100909.63;4974330;28;20032;-70
2022/08/17 05:27:52;;;;;;;0.00;0.00;;;;;;;19.57;97.34;100879.34;4976903;28;20031;-70
2022/08/17 05:30:18;;;;;;;0.00;0.00;;;;;;;19.54;97.91;100870.66;4979817;28;20038;-70
2022/08/17 05:32:53;;;;;;;0.00;0.00;;;;;;;19.42;98.67;100895.56;4978988;28;20034;-70
2022/08/17 05:35:19;;;;;;;0.00;0.00;;;;;;;19.44;98.62;100898.09;4979642;28;20077;-70
2022/08/17 05:37:44;;;;;;;0.00;0.00;;;;;;;19.49;98.41;100901.97;4975816;28;20042;-70
2022/08/17 05:40:10;;;;;;;0.00;0.00;;;;;;;19.54;98.38;100906.91;4978396;28;20026;-70
2022/08/17 05:42:36;;;;;;;0.00;0.00;;;;;;;19.58;97.65;100881.03;4981847;28;20034;-71
2022/08/17 05:45:01;;;;;;;0.00;0.00;;;;;;;19.31;98.73;100885.06;4982341;28;20042;-74
2022/08/17 05:47:27;;;;;;;0.00;0.00;;;;;;;19.47;98.95;100878.69;4983038;28;20391;-72
2022/08/17 05:49:52;;;;;;;0.00;0.00;;;;;;;19.58;98.79;100893.78;4982723;28;20397;-71
2022/08/17 05:52:32;;;;;;;0.00;0.00;;;;;;;19.44;99.31;100900.81;4980391;28;20414;-71
2022/08/17 05:55:08;;;;;;;0.00;0.00;;;;;;;19.57;98.19;100889.34;4974243;28;20671;-70
2022/08/17 05:58:05;;;;;;;0.00;0.00;;;;;;;19.48;98.75;100881.22;4972676;28;20027;-70
2022/08/17 06:00:46;;;;;;;0.00;0.00;;;;;;;19.59;98.81;100888.19;4971666;28;20031;-71
2022/08/17 06:03:17;;;;;;;0.00;0.00;;;;;;;19.68;97.87;100875.34;4980937;28;20088;-71
2022/08/17 06:05:43;;;;;;;0.00;0.00;;;;;;;19.72;97.90;100875.84;4983914;28;20707;-70
2022/08/17 06:08:18;;;;;;;0.00;0.00;;;;;;;19.68;98.10;100878.09;4974841;28;20027;-70
2022/08/17 06:11:02;;;;;;;0.00;0.00;;;;;;;19.65;98.51;100881.16;4984939;28;20287;-71
2022/08/17 06:13:46;;;;;;;0.00;0.00;;;;;;;19.68;98.04;100878.09;4986915;28;20415;-71
2022/08/17 06:16:14;;;;;;;0.00;0.00;;;;;;;19.48;98.69;100851.28;4979745;28;20030;-71
2022/08/17 06:18:51;;;;;;;0.00;0.00;;;;;;;19.74;97.00;100874.63;4985339;28;20030;-71
2022/08/17 06:21:18;;;;;;;0.00;0.00;;;;;;;19.78;97.32;100869.69;4985308;28;20073;-71
2022/08/17 06:24:12;;;;;;;0.00;0.00;;;;;;;19.86;95.91;100864.19;4988063;28;20027;-71
2022/08/17 06:26:39;;;;;;;0.00;0.00;;;;;;;19.97;94.91;100872.97;4981931;28;20039;-72
2022/08/17 06:29:16;;;;;;;0.00;0.00;;;;;;;20.10;94.34;100880.56;4980052;28;20030;-70
2022/08/17 06:31:42;;;;;;;0.00;0.00;;;;;;;20.08;93.69;100856.22;4984312;28;20030;-71
2022/08/17 06:34:08;;;;;;;0.00;0.00;;;;;;;20.27;93.69;100884.00;4981795;28;20026;-71
2022/08/17 06:36:56;;;;;;;0.00;0.00;;;;;;;20.27;93.75;100897.63;4983667;28;20042;-70
2022/08/17 06:39:47;;;;;;;0.00;0.00;;;;;;;20.30;93.51;100905.47;4981058;28;20064;-71
2022/08/17 06:42:30;;;;;;;0.00;0.00;;;;;;;20.49;92.50;100909.56;4974091;28;20490;-71
2022/08/17 06:45:09;;;;;;;0.00;0.00;;;;;;;20.62;92.70;100907.06;4979872;28;20645;-70
2022/08/17 06:48:00;;;;;;;0.00;0.00;;;;;;;20.74;92.29;100892.97;4978785;28;20386;-70
2022/08/17 06:50:26;;;;;;;0.10;0.00;;;;;;;20.86;90.96;100883.31;4988593;28;20042;-71
2022/08/17 06:53:21;;;;;;;0.00;0.00;;;;;;;20.79;89.35;100887.84;4981568;28;20467;-71
2022/08/17 06:55:55;;;;;;;0.00;0.00;;;;;;;20.92;88.67;100898.13;4984069;28;20042;-69
2022/08/17 06:58:23;;;;;;;0.00;0.00;;;;;;;21.00;89.07;100899.91;4980102;28;20053;-71
2022/08/17 07:00:51;;;;;;;0.00;0.00;;;;;;;21.07;88.28;100901.69;4983256;28;20034;-70
2022/08/17 07:03:36;;;;;;;0.00;0.00;;;;;;;21.14;88.70;100904.50;4987816;28;20034;-71
2022/08/17 07:06:13;;;;;;;0.00;0.00;;;;;;;21.20;88.21;100895.59;4981458;28;20041;-71
2022/08/17 07:08:57;;;;;;;0.00;0.00;;;;;;;21.27;88.58;100901.13;4986568;28;20025;-71
2022/08/17 07:11:33;;;;;;;0.00;0.00;;;;;;;21.33;87.82;100911.28;4982037;28;20030;-71
2022/08/17 07:14:17;;;;;;;0.00;0.00;;;;;;;21.36;87.54;100908.19;4983926;28;20068;-71
2022/08/17 07:16:45;;;;;;;0.00;0.00;;;;;;;21.41;87.08;100910.34;4986597;28;20035;-71
2022/08/17 07:19:13;;;;;;;0.00;0.00;;;;;;;21.42;86.62;100906.56;4969534;28;20352;-71
2022/08/17 07:22:12;;;;;;;0.00;0.00;;;;;;;21.47;85.74;100919.66;4985181;28;20084;-70
2022/08/17 07:24:44;;;;;;;0.00;0.00;;;;;;;21.48;86.03;100922.22;4983759;28;20068;-70
2022/08/17 07:27:22;;;;;;;0.00;0.00;;;;;;;21.54;84.93;100929.66;4986973;28;20109;-70
2022/08/17 07:29:56;;;;;;;0.00;0.00;;;;;;;21.61;86.48;100939.78;4986150;28;20022;-70
2022/08/17 07:32:30;;;;;;;0.00;0.00;;;;;;;21.57;86.44;100948.41;4982250;28;20133;-70
2022/08/17 07:35:09;;;;;;;;;;;;;;;21.49;85.77;100947.63;4984976;28;20510;-71
2022/08/17 07:37:37;;;;;;;0.00;0.00;;;;;;;21.60;83.78;100957.22;4984616;28;19964;-72
2022/08/17 07:40:23;;;;;;;0.00;0.00;;;;;;;21.57;83.25;100942.06;4982564;28;20534;-71
2022/08/17 07:43:17;;;;;;;0.10;0.10;;;;;;;21.69;82.89;100951.53;4981029;28;20030;-71
2022/08/17 07:48:37;;;;;;;0.00;0.00;;;;;;;21.70;84.29;100946.91;4979786;28;20641;-71
2022/08/17 07:51:52;;;;;;;0.00;0.00;;;;;;;21.64;82.54;100942.19;4986002;28;20060;-71
2022/08/17 07:54:22;;;;;;;0.00;0.00;;;;;;;21.70;82.45;100942.28;4986312;28;20692;-71
2022/08/17 07:57:00;;;;;;;0.00;0.00;;;;;;;21.75;83.10;100930.78;4980814;28;20068;-71
2022/08/17 07:59:29;;;;;;;0.00;0.00;;;;;;;21.86;83.28;100932.16;4986905;28;20444;-71
2022/08/17 08:02:02;;;;;;;0.00;0.00;;;;;;;21.84;83.42;100932.38;4982981;28;20034;-72
2022/08/17 08:04:30;;;;;;;0.00;0.00;;;;;;;21.94;82.73;100944.88;4980470;28;20039;-69
2022/08/17 08:06:58;;;;;;;0.00;0.00;;;;;;;21.96;82.61;100951.00;4986266;28;20285;-69
2022/08/17 08:09:37;;;;;;;0.00;0.00;;;;;;;22.05;82.50;100954.44;4982274;28;20060;-69
2022/08/17 08:12:22;;;;;;;0.00;0.00;;;;;;;22.01;82.12;100976.69;4979829;28;20030;-69
2022/08/17 08:14:57;;;;;;;0.00;0.00;;;;;;;21.91;80.76;100978.91;4985808;28;20022;-70
2022/08/17 08:17:26;;;;;;;0.00;0.00;;;;;;;21.92;81.55;100980.59;4978612;28;20031;-69
2022/08/17 08:19:51;;;;;;;0.00;0.00;;;;;;;22.01;81.80;100984.91;4981281;28;20630;-67
2022/08/17 08:22:27;;;;;;;0.00;0.00;;;;;;;21.91;82.57;100988.97;4979618;28;20034;-68
2022/08/17 08:25:22;;;;;;;0.00;0.00;;;;;;;21.84;81.80;101008.88;4978315;28;20034;-68
2022/08/17 08:28:05;;;;;;;0.00;0.00;;;;;;;21.65;83.48;101010.31;4978846;28;20755;-67
2022/08/17 08:30:33;;;;;;;0.00;0.00;;;;;;;21.75;83.88;101047.41;4986400;28;20034;-67
2022/08/17 08:33:19;;;;;;;0.00;0.00;;;;;;;21.75;83.43;101059.19;4983849;28;20030;-69
2022/08/17 08:35:55;;;;;;;0.00;0.00;;;;;;;21.64;84.25;101035.94;4981162;28;20588;-69
2022/08/17 08:38:48;;;;;;;0.05;0.00;;;;;;;21.49;86.61;100999.53;4984446;28;20034;-71
2022/08/17 08:41:35;;;;;;;0.00;0.00;;;;;;;21.48;86.07;100957.72;4981653;28;20129;-71
2022/08/17 08:44:17;;;;;;;0.00;0.00;;;;;;;21.45;87.17;100906.19;4977693;28;20069;-72
2022/08/17 08:47:00;;;;;;;0.00;0.00;;;;;;;21.26;90.50;100872.13;4975275;28;20034;-72
2022/08/17 08:49:44;;;;;;;0.00;0.00;;;;;;;21.49;88.72;100884.81;4977985;28;20038;-71
2022/08/17 08:52:34;;;;;;;0.00;0.00;;;;;;;21.47;89.51;100890.47;4977775;28;20031;-73
2022/08/17 08:55:20;;;;;;;0.00;0.00;;;;;;;21.72;87.29;100881.97;4985618;28;20080;-70
2022/08/17 08:57:59;;;;;;;0.00;0.00;;;;;;;21.93;86.48;100904.91;4986831;28;20497;-69
2022/08/17 09:00:26;;;;;;;0.00;0.00;;;;;;;21.94;89.11;100920.25;4981743;28;20048;-69
2022/08/17 09:03:25;;;;;;;0.00;0.00;;;;;;;22.09;88.15;100931.16;4979952;28;20390;-70
2022/08/17 09:06:28;;;;;;;0.00;0.00;;;;;;;22.28;85.25;100929.69;4975769;28;20133;-70
2022/08/17 09:09:12;;;;;;;0.00;0.00;;;;;;;22.50;83.49;100925.09;4986408;28;20026;-70
2022/08/17 09:12:03;;;;;;;0.00;0.00;;;;;;;22.85;81.23;100938.81;4985107;28;20498;-69
2022/08/17 09:15:03;;;;;;;0.00;0.00;;;;;;;23.16;80.58;100953.19;4974486;28;20087;-69
2022/08/17 09:17:35;;;;;;;0.00;0.00;;;;;;;23.37;79.43;100949.53;4982530;28;20410;-69
2022/08/17 09:20:24;;;;;;;0.00;0.00;;;;;;;23.44;79.81;100936.72;4983000;28;20053;-71
2022/08/17 09:23:06;;;;;;;0.00;0.00;;;;;;;23.77;79.52;100957.09;4969552;28;20034;-69
2022/08/17 09:25:41;;;;;;;0.00;0.00;;;;;;;24.08;78.95;100956.63;4980097;28;20035;-69
2022/08/17 09:28:17;;;;;;;0.00;0.00;;;;;;;24.14;79.76;100963.16;4973962;28;20050;-69
2022/08/17 09:30:48;;;;;;;0.00;0.00;;;;;;;24.00;76.90;100980.63;4975120;28;20056;-72
2022/08/17 09:33:18;;;;;;;0.00;0.00;;;;;;;23.81;77.15;100981.19;4974125;28;20245;-72
2022/08/17 09:36:09;;;;;;;0.00;0.00;;;;;;;23.75;76.88;100973.75;4976478;28;20037;-71
2022/08/17 09:38:43;;;;;;;0.00;0.00;;;;;;;23.99;76.19;100996.25;4974567;28;20062;-71
2022/08/17 09:41:21;;;;;;;0.00;0.00;;;;;;;24.07;75.67;100998.81;4978022;28;20037;-71
2022/08/17 09:44:15;;;;;;;0.00;0.00;;;;;;;24.13;75.63;100993.53;4981040;28;20464;-69
2022/08/17 09:46:44;;;;;;;;;;;;;;;23.88;74.22;100994.91;4984911;28;20039;-71
2022/08/17 09:49:20;;;;;;;0.00;0.00;;;;;;;23.89;74.98;100979.28;4982915;28;20338;-70
2022/08/17 09:51:51;;;;;;;0.00;0.00;;;;;;;24.06;73.52;101004.47;4979673;28;20434;-69
2022/08/17 09:54:19;;;;;;;0.00;0.00;;;;;;;24.14;75.22;100998.81;4990153;28;20102;-69
2022/08/17 09:56:54;;;;;;;0.00;0.00;;;;;;;23.89;75.24;100995.72;4985277;28;20033;-69
2022/08/17 09:59:31;;;;;;;0.00;0.00;;;;;;;24.00;73.97;101014.38;4987825;28;20730;-69
2022/08/17 10:02:08;;;;;;;0.00;0.00;;;;;;;23.81;73.52;101018.69;4982949;28;20026;-71
2022/08/17 10:05:01;;;;;;;0.00;0.00;;;;;;;23.88;72.86;101015.97;4990616;28;20044;-70
2022/08/17 10:07:35;;;;;;;0.00;0.00;;;;;;;23.92;72.69;101033.72;4987532;28;20051;-70
2022/08/17 10:10:19;;;;;;;0.00;0.00;;;;;;;23.77;73.58;101048.41;4991635;28;20030;-70
2022/08/17 10:12:54;;;;;;;0.00;0.00;;;;;;;23.63;74.19;101050.22;4991648;28;20026;-70
2022/08/17 10:15:45;;;;;;;0.00;0.00;;;;;;;23.46;73.33;101057.03;4987062;28;20030;-70
2022/08/17 10:18:44;;;;;;;0.00;0.00;;;;;;;23.35;75.03;101052.97;4982315;28;20018;-70
2022/08/17 10:26:58;;;;;;;0.00;0.00;;;;;;;23.02;77.18;101059.00;4985655;28;20041;-68
2022/08/17 10:29:43;;;;;;;0.00;0.00;;;;;;;22.89;77.71;101054.25;4991275;28;20038;-68
2022/08/17 10:32:13;;;;;;;0.00;0.00;;;;;;;22.84;77.93;101057.56;4983844;28;20038;-68
2022/08/17 10:34:51;;;;;;;0.00;0.00;;;;;;;22.86;78.52;101054.66;4981777;28;20474;-69
2022/08/17 10:37:55;;;;;;;0.00;0.00;;;;;;;22.90;79.52;101061.44;4970523;28;20211;-68
2022/08/17 10:40:48;;;;;;;0.00;0.00;;;;;;;22.77;80.80;101052.03;4992365;28;20038;-69
2022/08/17 10:43:29;;;;;;;0.00;0.00;;;;;;;22.77;80.34;101062.16;4985404;28;20552;-69
2022/08/17 10:46:01;;;;;;;0.00;0.00;;;;;;;22.66;82.10;101055.28;4983437;28;20149;-68
2022/08/17 10:48:31;;;;;;;0.00;0.00;;;;;;;22.62;81.99;101057.56;4989763;28;20117;-68
2022/08/17 10:51:06;;;;;;;0.00;0.00;;;;;;;22.49;82.77;101057.44;4990975;28;20034;-67
2022/08/17 10:53:31;;;;;;;0.00;0.00;;;;;;;22.31;86.06;101055.94;4986980;28;20034;-67
2022/08/17 10:56:12;;;;;;;0.00;0.00;;;;;;;22.15;88.16;101057.00;4983252;28;20041;-68
2022/08/17 10:58:57;;;;;;;0.00;0.00;;;;;;;22.00;89.69;101054.28;4989654;28;20033;-67
2022/08/17 11:01:31;;;;;;;0.00;0.00;;;;;;;21.82;92.54;101049.22;4986993;28;20034;-67
2022/08/17 11:04:00;;;;;;;0.00;0.00;;;;;;;21.75;93.12;101042.81;4981013;28;20866;-68
2022/08/17 11:06:48;;;;;;;0.00;0.00;;;;;;;21.70;94.56;101037.91;4980594;28;20033;-67
2022/08/17 11:09:40;;;;;;;0.00;0.00;;;;;;;21.68;95.77;101037.25;4973696;28;20046;-67
2022/08/17 11:12:43;;;;;;;0.00;0.00;;;;;;;21.72;96.17;101030.34;4977763;28;20042;-66
2022/08/17 11:15:31;;;;;;;0.00;0.00;;;;;;;21.65;95.85;101037.63;4980910;28;20049;-67
2022/08/17 11:18:00;;;;;;;0.00;0.00;;;;;;;21.61;96.18;101029.94;4978902;28;20030;-66
2022/08/17 11:20:51;;;;;;;4.00;2.97;;;;;;;21.56;97.01;101027.78;4986678;28;20520;-67
2022/08/17 11:23:23;;;;;;;0.30;0.30;;;;;;;21.63;97.38;101033.38;4982021;28;20496;-67
2022/08/17 11:25:57;;;;;;;0.10;0.10;;;;;;;21.70;99.51;101034.31;4984279;28;20374;-67
2022/08/17 11:28:23;;;;;;;;;;;;;;;21.75;100.00;101026.41;4983911;28;20026;-67
2022/08/17 11:30:51;;;;;;;0.00;0.00;;;;;;;21.82;99.45;101027.38;4986105;28;20285;-67
2022/08/17 11:33:40;;;;;;;0.00;0.00;;;;;;;21.84;98.74;101022.56;4983825;28;20109;-67
2022/08/17 11:36:36;;;;;;;0.00;0.00;;;;;;;21.80;100.00;101025.84;4983546;28;20510;-67
2022/08/17 11:39:20;;;;;;;0.00;0.00;;;;;;;21.82;100.00;101031.97;4983346;28;20022;-67
2022/08/17 11:41:57;;;;;;;0.00;0.00;;;;;;;21.89;100.00;101032.91;4986339;28;20026;-67
2022/08/17 11:44:29;;;;;;;0.00;0.00;;;;;;;21.84;99.17;101041.69;4981534;28;20034;-67
2022/08/17 11:53:03;;;;;;;0.00;0.00;;;;;;;21.98;98.41;101044.59;4985696;28;20061;-67
2022/08/17 11:55:30;;;;;;;0.00;0.00;;;;;;;22.03;98.88;101047.59;4983671;28;20040;-66
2022/08/17 11:58:19;;;;;;;0.00;0.00;;;;;;;22.08;98.47;101049.75;4987412;28;20026;-67
2022/08/17 12:00:44;;;;;;;0.00;0.00;;;;;;;21.92;97.46;101056.25;4978042;28;20026;-67
2022/08/17 12:03:32;;;;;;;0.00;0.00;;;;;;;21.83;96.52;101066.44;4985389;28;20553;-67
2022/08/17 12:06:02;;;;;;;0.00;0.00;;;;;;;21.81;96.52;101065.78;4984812;28;20287;-66
2022/08/17 12:08:31;;;;;;;0.00;0.00;;;;;;;21.85;97.49;101069.84;4986029;28;20026;-67
2022/08/17 12:11:07;;;;;;;0.00;0.00;;;;;;;21.83;97.35;101071.91;4987006;28;20038;-67
2022/08/17 12:13:41;;;;;;;0.00;0.00;;;;;;;21.74;97.15;101076.63;4985286;28;20041;-66
2022/08/17 12:16:07;;;;;;;;;;;;;;;21.68;98.22;101088.31;4980569;28;20054;-66
2022/08/17 12:18:34;;;;;;;0.00;0.00;;;;;;;21.78;98.02;101085.28;4982046;28;19922;-66
2022/08/17 12:21:18;;;;;;;0.00;0.00;;;;;;;21.86;96.03;101101.59;4979487;28;20482;-67
2022/08/17 12:23:51;;;;;;;0.00;0.00;;;;;;;21.88;95.57;101097.63;4980725;28;20570;-67